sensor_id;sensor_type;location;lat;lon;timestamp;P1;durP1;ratioP1;P2;durP2;ratioP2
8213;SDS011;4148;47.974;7.824;2023-02-28T00:01:23;7.40;;;4.10;;
8213;SDS011;4148;47.974;7.824;2023-02-28T00:03:52;5.30;;;3.93;;
8213;SDS011;4148;47.974;7.824;2023-02-28T00:06:20;4.60;;;3.97;;
8213;SDS011;4148;47.974;7.824;2023-02-28T00:08:48;7.57;;;3.57;;
8213;SDS011;4148;47.974;7.824;2023-02-28T00:11:16;5.93;;;3.83;;
8213;SDS011;4148;47.974;7.824;2023-02-28T00:13:45;5.07;;;3.97;;
8213;SDS011;4148;47.974;7.824;2023-02-28T00:16:14;6.83;;;4.30;;
8213;SDS011;4148;47.974;7.824;2023-02-28T00:18:43;5.20;;;3.50;;
8213;SDS011;4148;47.974;7.824;2023-02-28T00:21:12;8.10;;;4.37;;
8213;SDS011;4148;47.974;7.824;2023-02-28T00:23:41;6.70;;;4.30;;
8213;SDS011;4148;47.974;7.824;2023-02-28T00:26:09;7.13;;;4.40;;
8213;SDS011;4148;47.974;7.824;2023-02-28T00:28:37;6.10;;;4.40;;
8213;SDS011;4148;47.974;7.824;2023-02-28T00:31:05;14.43;;;4.20;;
8213;SDS011;4148;47.974;7.824;2023-02-28T00:33:33;4.60;;;3.60;;
8213;SDS011;4148;47.974;7.824;2023-02-28T00:36:03;5.63;;;4.10;;
8213;SDS011;4148;47.974;7.824;2023-02-28T00:38:34;4.80;;;3.87;;
8213;SDS011;4148;47.974;7.824;2023-02-28T00:41:01;7.47;;;4.30;;
8213;SDS011;4148;47.974;7.824;2023-02-28T00:43:31;5.17;;;3.47;;
8213;SDS011;4148;47.974;7.824;2023-02-28T00:46:00;6.83;;;3.87;;
8213;SDS011;4148;47.974;7.824;2023-02-28T00:48:28;8.87;;;4.30;;
8213;SDS011;4148;47.974;7.824;2023-02-28T00:50:56;4.90;;;3.63;;
8213;SDS011;4148;47.974;7.824;2023-02-28T00:53:24;7.47;;;4.17;;
8213;SDS011;4148;47.974;7.824;2023-02-28T00:55:53;6.30;;;4.00;;
8213;SDS011;4148;47.974;7.824;2023-02-28T00:58:21;6.70;;;4.03;;
8213;SDS011;4148;47.974;7.824;2023-02-28T01:00:48;5.70;;;4.03;;
8213;SDS011;4148;47.974;7.824;2023-02-28T01:03:17;5.10;;;4.37;;
8213;SDS011;4148;47.974;7.824;2023-02-28T01:05:46;5.30;;;4.03;;
8213;SDS011;4148;47.974;7.824;2023-02-28T01:08:14;5.73;;;3.70;;
8213;SDS011;4148;47.974;7.824;2023-02-28T01:10:42;6.10;;;4.07;;
8213;SDS011;4148;47.974;7.824;2023-02-28T01:13:11;5.70;;;3.80;;
8213;SDS011;4148;47.974;7.824;2023-02-28T01:15:40;4.63;;;4.17;;
8213;SDS011;4148;47.974;7.824;2023-02-28T01:18:11;8.40;;;4.47;;
8213;SDS011;4148;47.974;7.824;2023-02-28T01:20:38;5.50;;;4.43;;
8213;SDS011;4148;47.974;7.824;2023-02-28T01:23:06;6.13;;;4.07;;
8213;SDS011;4148;47.974;7.824;2023-02-28T01:25:34;6.23;;;4.47;;
8213;SDS011;4148;47.974;7.824;2023-02-28T01:28:03;10.67;;;5.10;;
8213;SDS011;4148;47.974;7.824;2023-02-28T01:30:33;6.00;;;4.40;;
8213;SDS011;4148;47.974;7.824;2023-02-28T01:33:01;6.50;;;4.40;;
8213;SDS011;4148;47.974;7.824;2023-02-28T01:35:31;4.70;;;3.90;;
8213;SDS011;4148;47.974;7.824;2023-02-28T01:37:59;6.27;;;4.30;;
8213;SDS011;4148;47.974;7.824;2023-02-28T01:40:46;8.50;;;4.37;;
8213;SDS011;4148;47.974;7.824;2023-02-28T01:43:17;6.07;;;4.47;;
8213;SDS011;4148;47.974;7.824;2023-02-28T01:45:49;5.90;;;4.60;;
8213;SDS011;4148;47.974;7.824;2023-02-28T01:48:17;5.63;;;4.57;;
8213;SDS011;4148;47.974;7.824;2023-02-28T01:50:48;6.77;;;5.00;;
8213;SDS011;4148;47.974;7.824;2023-02-28T01:53:17;5.30;;;3.67;;
8213;SDS011;4148;47.974;7.824;2023-02-28T01:55:49;6.60;;;4.10;;
8213;SDS011;4148;47.974;7.824;2023-02-28T01:58:19;4.53;;;3.77;;
8213;SDS011;4148;47.974;7.824;2023-02-28T02:00:47;5.40;;;4.50;;
8213;SDS011;4148;47.974;7.824;2023-02-28T02:03:17;6.80;;;4.57;;
8213;SDS011;4148;47.974;7.824;2023-02-28T02:05:47;6.37;;;4.70;;
8213;SDS011;4148;47.974;7.824;2023-02-28T02:08:17;5.70;;;4.60;;
8213;SDS011;4148;47.974;7.824;2023-02-28T02:10:47;7.00;;;4.80;;
8213;SDS011;4148;47.974;7.824;2023-02-28T02:13:25;6.37;;;4.33;;
8213;SDS011;4148;47.974;7.824;2023-02-28T02:16:10;5.53;;;3.80;;
8213;SDS011;4148;47.974;7.824;2023-02-28T02:18:49;5.17;;;3.93;;
8213;SDS011;4148;47.974;7.824;2023-02-28T02:21:35;5.33;;;4.33;;
8213;SDS011;4148;47.974;7.824;2023-02-28T02:24:42;6.03;;;4.30;;
8213;SDS011;4148;47.974;7.824;2023-02-28T02:27:19;6.33;;;4.80;;
8213;SDS011;4148;47.974;7.824;2023-02-28T02:36:07;9.03;;;4.20;;
8213;SDS011;4148;47.974;7.824;2023-02-28T02:38:41;7.20;;;4.17;;
8213;SDS011;4148;47.974;7.824;2023-02-28T02:41:16;5.97;;;4.33;;
8213;SDS011;4148;47.974;7.824;2023-02-28T02:43:51;7.03;;;4.27;;
8213;SDS011;4148;47.974;7.824;2023-02-28T02:46:21;5.70;;;4.80;;
8213;SDS011;4148;47.974;7.824;2023-02-28T02:48:54;5.40;;;4.17;;
8213;SDS011;4148;47.974;7.824;2023-02-28T02:51:24;7.17;;;4.40;;
8213;SDS011;4148;47.974;7.824;2023-02-28T02:53:55;5.20;;;3.60;;
8213;SDS011;4148;47.974;7.824;2023-02-28T02:56:27;5.33;;;4.50;;
8213;SDS011;4148;47.974;7.824;2023-02-28T02:58:59;5.53;;;3.80;;
8213;SDS011;4148;47.974;7.824;2023-02-28T03:01:30;5.80;;;4.57;;
8213;SDS011;4148;47.974;7.824;2023-02-28T03:03:59;4.67;;;3.93;;
8213;SDS011;4148;47.974;7.824;2023-02-28T03:06:30;4.97;;;4.37;;
8213;SDS011;4148;47.974;7.824;2023-02-28T03:08:59;7.40;;;4.33;;
8213;SDS011;4148;47.974;7.824;2023-02-28T03:11:27;6.10;;;4.50;;
8213;SDS011;4148;47.974;7.824;2023-02-28T03:14:02;5.10;;;4.00;;
8213;SDS011;4148;47.974;7.824;2023-02-28T03:16:45;4.80;;;4.20;;
8213;SDS011;4148;47.974;7.824;2023-02-28T03:19:27;7.83;;;5.03;;
8213;SDS011;4148;47.974;7.824;2023-02-28T03:22:10;5.90;;;4.10;;
8213;SDS011;4148;47.974;7.824;2023-02-28T03:24:49;6.60;;;4.60;;
8213;SDS011;4148;47.974;7.824;2023-02-28T03:27:23;5.43;;;4.87;;
8213;SDS011;4148;47.974;7.824;2023-02-28T03:29:56;6.20;;;4.17;;
8213;SDS011;4148;47.974;7.824;2023-02-28T03:32:29;5.97;;;4.50;;
8213;SDS011;4148;47.974;7.824;2023-02-28T03:35:04;8.10;;;4.43;;
8213;SDS011;4148;47.974;7.824;2023-02-28T03:37:38;4.37;;;3.60;;
8213;SDS011;4148;47.974;7.824;2023-02-28T03:40:10;5.80;;;3.90;;
8213;SDS011;4148;47.974;7.824;2023-02-28T03:42:42;7.13;;;4.10;;
8213;SDS011;4148;47.974;7.824;2023-02-28T03:45:13;6.73;;;4.30;;
8213;SDS011;4148;47.974;7.824;2023-02-28T03:47:46;4.40;;;4.00;;
8213;SDS011;4148;47.974;7.824;2023-02-28T03:50:20;5.60;;;4.10;;
8213;SDS011;4148;47.974;7.824;2023-02-28T03:52:53;6.33;;;4.63;;
8213;SDS011;4148;47.974;7.824;2023-02-28T03:55:27;5.27;;;3.60;;
8213;SDS011;4148;47.974;7.824;2023-02-28T03:57:58;6.03;;;3.90;;
8213;SDS011;4148;47.974;7.824;2023-02-28T04:00:32;6.37;;;4.17;;
8213;SDS011;4148;47.974;7.824;2023-02-28T04:03:04;7.30;;;4.70;;
8213;SDS011;4148;47.974;7.824;2023-02-28T04:05:32;4.17;;;3.77;;
8213;SDS011;4148;47.974;7.824;2023-02-28T04:08:12;6.40;;;4.23;;
8213;SDS011;4148;47.974;7.824;2023-02-28T04:10:39;5.67;;;4.33;;
8213;SDS011;4148;47.974;7.824;2023-02-28T04:13:09;4.87;;;4.20;;
8213;SDS011;4148;47.974;7.824;2023-02-28T04:15:37;6.33;;;3.97;;
8213;SDS011;4148;47.974;7.824;2023-02-28T04:18:05;6.10;;;4.10;;
8213;SDS011;4148;47.974;7.824;2023-02-28T04:20:33;6.83;;;4.50;;
8213;SDS011;4148;47.974;7.824;2023-02-28T04:23:01;8.60;;;4.80;;
8213;SDS011;4148;47.974;7.824;2023-02-28T04:25:30;6.07;;;4.17;;
8213;SDS011;4148;47.974;7.824;2023-02-28T04:27:58;7.03;;;4.90;;
8213;SDS011;4148;47.974;7.824;2023-02-28T04:30:26;5.93;;;3.97;;
8213;SDS011;4148;47.974;7.824;2023-02-28T04:32:55;7.67;;;4.57;;
8213;SDS011;4148;47.974;7.824;2023-02-28T04:35:23;5.30;;;3.90;;
8213;SDS011;4148;47.974;7.824;2023-02-28T04:37:51;6.43;;;4.60;;
8213;SDS011;4148;47.974;7.824;2023-02-28T04:40:19;7.33;;;4.40;;
8213;SDS011;4148;47.974;7.824;2023-02-28T04:42:48;5.50;;;4.00;;
8213;SDS011;4148;47.974;7.824;2023-02-28T04:45:16;8.60;;;4.63;;
8213;SDS011;4148;47.974;7.824;2023-02-28T04:47:44;7.70;;;4.97;;
8213;SDS011;4148;47.974;7.824;2023-02-28T04:50:11;8.00;;;4.90;;
8213;SDS011;4148;47.974;7.824;2023-02-28T04:52:39;6.67;;;5.17;;
8213;SDS011;4148;47.974;7.824;2023-02-28T04:55:07;5.73;;;4.37;;
8213;SDS011;4148;47.974;7.824;2023-02-28T04:57:35;5.50;;;5.00;;
8213;SDS011;4148;47.974;7.824;2023-02-28T05:00:05;7.97;;;5.20;;
8213;SDS011;4148;47.974;7.824;2023-02-28T05:02:37;5.70;;;4.30;;
8213;SDS011;4148;47.974;7.824;2023-02-28T05:05:05;8.83;;;5.23;;
8213;SDS011;4148;47.974;7.824;2023-02-28T05:07:33;6.63;;;4.80;;
8213;SDS011;4148;47.974;7.824;2023-02-28T05:10:02;5.57;;;4.37;;
8213;SDS011;4148;47.974;7.824;2023-02-28T05:12:31;5.93;;;4.60;;
8213;SDS011;4148;47.974;7.824;2023-02-28T05:14:59;8.90;;;4.53;;
8213;SDS011;4148;47.974;7.824;2023-02-28T05:17:29;7.17;;;4.50;;
8213;SDS011;4148;47.974;7.824;2023-02-28T05:19:57;7.47;;;5.20;;
8213;SDS011;4148;47.974;7.824;2023-02-28T05:22:40;7.60;;;5.27;;
8213;SDS011;4148;47.974;7.824;2023-02-28T05:25:08;8.03;;;5.10;;
8213;SDS011;4148;47.974;7.824;2023-02-28T05:27:38;7.30;;;4.97;;
8213;SDS011;4148;47.974;7.824;2023-02-28T05:30:06;7.10;;;5.10;;
8213;SDS011;4148;47.974;7.824;2023-02-28T05:32:38;8.00;;;5.20;;
8213;SDS011;4148;47.974;7.824;2023-02-28T05:35:09;8.83;;;5.63;;
8213;SDS011;4148;47.974;7.824;2023-02-28T05:37:37;7.77;;;5.10;;
8213;SDS011;4148;47.974;7.824;2023-02-28T05:40:07;6.93;;;5.03;;
8213;SDS011;4148;47.974;7.824;2023-02-28T05:42:36;6.50;;;5.00;;
8213;SDS011;4148;47.974;7.824;2023-02-28T05:45:04;8.97;;;6.13;;
8213;SDS011;4148;47.974;7.824;2023-02-28T05:47:34;6.97;;;5.00;;
8213;SDS011;4148;47.974;7.824;2023-02-28T05:50:04;9.37;;;5.60;;
8213;SDS011;4148;47.974;7.824;2023-02-28T05:52:33;7.53;;;5.50;;
8213;SDS011;4148;47.974;7.824;2023-02-28T05:55:00;9.53;;;5.63;;
8213;SDS011;4148;47.974;7.824;2023-02-28T05:57:28;18.03;;;7.53;;
8213;SDS011;4148;47.974;7.824;2023-02-28T05:59:56;11.07;;;5.53;;
8213;SDS011;4148;47.974;7.824;2023-02-28T06:02:24;7.97;;;5.90;;
8213;SDS011;4148;47.974;7.824;2023-02-28T06:04:52;6.90;;;5.30;;
8213;SDS011;4148;47.974;7.824;2023-02-28T06:07:21;13.53;;;6.70;;
8213;SDS011;4148;47.974;7.824;2023-02-28T06:09:49;8.80;;;5.47;;
8213;SDS011;4148;47.974;7.824;2023-02-28T06:12:17;12.17;;;6.00;;
8213;SDS011;4148;47.974;7.824;2023-02-28T06:14:45;10.10;;;6.50;;
8213;SDS011;4148;47.974;7.824;2023-02-28T06:17:12;9.63;;;6.30;;
8213;SDS011;4148;47.974;7.824;2023-02-28T06:19:40;7.50;;;5.70;;
8213;SDS011;4148;47.974;7.824;2023-02-28T06:22:08;8.10;;;5.90;;
8213;SDS011;4148;47.974;7.824;2023-02-28T06:24:37;9.23;;;5.97;;
8213;SDS011;4148;47.974;7.824;2023-02-28T06:27:05;7.20;;;5.67;;
8213;SDS011;4148;47.974;7.824;2023-02-28T06:29:33;8.70;;;6.57;;
8213;SDS011;4148;47.974;7.824;2023-02-28T06:32:02;8.90;;;6.10;;
8213;SDS011;4148;47.974;7.824;2023-02-28T06:34:30;8.13;;;5.90;;
8213;SDS011;4148;47.974;7.824;2023-02-28T06:36:57;13.67;;;6.70;;
8213;SDS011;4148;47.974;7.824;2023-02-28T06:39:28;8.77;;;5.83;;
8213;SDS011;4148;47.974;7.824;2023-02-28T06:41:57;9.53;;;6.47;;
8213;SDS011;4148;47.974;7.824;2023-02-28T06:44:25;8.20;;;5.73;;
8213;SDS011;4148;47.974;7.824;2023-02-28T06:46:53;9.10;;;6.33;;
8213;SDS011;4148;47.974;7.824;2023-02-28T06:49:21;9.07;;;6.10;;
8213;SDS011;4148;47.974;7.824;2023-02-28T06:51:48;9.33;;;6.50;;
8213;SDS011;4148;47.974;7.824;2023-02-28T06:54:16;8.87;;;5.97;;
8213;SDS011;4148;47.974;7.824;2023-02-28T06:56:44;9.20;;;6.50;;
8213;SDS011;4148;47.974;7.824;2023-02-28T06:59:14;7.97;;;6.23;;
8213;SDS011;4148;47.974;7.824;2023-02-28T07:01:42;9.67;;;6.53;;
8213;SDS011;4148;47.974;7.824;2023-02-28T07:04:10;8.40;;;6.10;;
8213;SDS011;4148;47.974;7.824;2023-02-28T07:06:39;14.40;;;6.93;;
8213;SDS011;4148;47.974;7.824;2023-02-28T07:09:07;9.80;;;6.50;;
8213;SDS011;4148;47.974;7.824;2023-02-28T07:11:36;10.27;;;6.57;;
8213;SDS011;4148;47.974;7.824;2023-02-28T07:14:04;7.13;;;5.90;;
8213;SDS011;4148;47.974;7.824;2023-02-28T07:16:33;8.27;;;6.60;;
8213;SDS011;4148;47.974;7.824;2023-02-28T07:19:02;8.07;;;6.70;;
8213;SDS011;4148;47.974;7.824;2023-02-28T07:21:30;8.80;;;6.03;;
8213;SDS011;4148;47.974;7.824;2023-02-28T07:23:58;9.60;;;7.17;;
8213;SDS011;4148;47.974;7.824;2023-02-28T07:26:25;9.50;;;6.80;;
8213;SDS011;4148;47.974;7.824;2023-02-28T07:28:53;9.87;;;6.27;;
8213;SDS011;4148;47.974;7.824;2023-02-28T07:31:21;10.40;;;6.80;;
8213;SDS011;4148;47.974;7.824;2023-02-28T07:33:50;10.67;;;6.90;;
8213;SDS011;4148;47.974;7.824;2023-02-28T07:36:19;8.50;;;6.10;;
8213;SDS011;4148;47.974;7.824;2023-02-28T07:38:47;11.50;;;6.50;;
8213;SDS011;4148;47.974;7.824;2023-02-28T07:41:16;11.03;;;6.13;;
8213;SDS011;4148;47.974;7.824;2023-02-28T07:43:45;9.07;;;6.50;;
8213;SDS011;4148;47.974;7.824;2023-02-28T07:46:13;9.20;;;6.50;;
8213;SDS011;4148;47.974;7.824;2023-02-28T07:48:42;8.93;;;6.17;;
8213;SDS011;4148;47.974;7.824;2023-02-28T07:51:12;7.40;;;6.13;;
8213;SDS011;4148;47.974;7.824;2023-02-28T07:53:40;9.20;;;6.73;;
8213;SDS011;4148;47.974;7.824;2023-02-28T07:56:08;9.33;;;6.47;;
8213;SDS011;4148;47.974;7.824;2023-02-28T07:58:36;8.50;;;6.37;;
8213;SDS011;4148;47.974;7.824;2023-02-28T08:01:04;8.60;;;6.80;;
8213;SDS011;4148;47.974;7.824;2023-02-28T08:03:33;9.80;;;6.80;;
8213;SDS011;4148;47.974;7.824;2023-02-28T08:06:01;8.53;;;7.37;;
8213;SDS011;4148;47.974;7.824;2023-02-28T08:08:31;10.33;;;6.60;;
8213;SDS011;4148;47.974;7.824;2023-02-28T08:10:59;9.70;;;6.70;;
8213;SDS011;4148;47.974;7.824;2023-02-28T08:13:28;10.30;;;6.67;;
8213;SDS011;4148;47.974;7.824;2023-02-28T08:15:56;9.40;;;6.03;;
8213;SDS011;4148;47.974;7.824;2023-02-28T08:18:24;10.27;;;6.30;;
8213;SDS011;4148;47.974;7.824;2023-02-28T08:20:52;7.07;;;5.90;;
8213;SDS011;4148;47.974;7.824;2023-02-28T08:23:20;8.37;;;6.83;;
8213;SDS011;4148;47.974;7.824;2023-02-28T08:25:53;9.77;;;6.23;;
8213;SDS011;4148;47.974;7.824;2023-02-28T08:28:22;7.83;;;6.03;;
8213;SDS011;4148;47.974;7.824;2023-02-28T08:30:52;9.50;;;6.70;;
8213;SDS011;4148;47.974;7.824;2023-02-28T08:33:20;10.70;;;6.07;;
8213;SDS011;4148;47.974;7.824;2023-02-28T08:35:49;7.00;;;6.10;;
8213;SDS011;4148;47.974;7.824;2023-02-28T08:38:19;9.47;;;6.50;;
8213;SDS011;4148;47.974;7.824;2023-02-28T08:40:48;10.13;;;6.30;;
8213;SDS011;4148;47.974;7.824;2023-02-28T08:43:17;13.20;;;7.13;;
8213;SDS011;4148;47.974;7.824;2023-02-28T08:45:45;8.60;;;6.43;;
8213;SDS011;4148;47.974;7.824;2023-02-28T08:48:12;8.70;;;6.30;;
8213;SDS011;4148;47.974;7.824;2023-02-28T08:50:43;8.40;;;6.60;;
8213;SDS011;4148;47.974;7.824;2023-02-28T08:53:20;11.17;;;7.53;;
8213;SDS011;4148;47.974;7.824;2023-02-28T08:55:55;9.20;;;6.87;;
8213;SDS011;4148;47.974;7.824;2023-02-28T08:58:25;8.27;;;6.70;;
8213;SDS011;4148;47.974;7.824;2023-02-28T09:00:53;9.90;;;7.13;;
8213;SDS011;4148;47.974;7.824;2023-02-28T09:03:22;10.90;;;7.20;;
8213;SDS011;4148;47.974;7.824;2023-02-28T09:05:54;9.27;;;6.30;;
8213;SDS011;4148;47.974;7.824;2023-02-28T09:08:23;10.17;;;7.50;;
8213;SDS011;4148;47.974;7.824;2023-02-28T09:10:52;11.90;;;7.83;;
8213;SDS011;4148;47.974;7.824;2023-02-28T09:13:20;9.40;;;6.83;;
8213;SDS011;4148;47.974;7.824;2023-02-28T09:15:49;10.67;;;8.03;;
8213;SDS011;4148;47.974;7.824;2023-02-28T09:18:17;10.80;;;7.17;;
8213;SDS011;4148;47.974;7.824;2023-02-28T09:20:45;9.30;;;6.90;;
8213;SDS011;4148;47.974;7.824;2023-02-28T09:23:13;10.73;;;6.60;;
8213;SDS011;4148;47.974;7.824;2023-02-28T09:25:45;10.70;;;7.00;;
8213;SDS011;4148;47.974;7.824;2023-02-28T09:28:13;9.80;;;6.53;;
8213;SDS011;4148;47.974;7.824;2023-02-28T09:30:43;8.40;;;6.50;;
8213;SDS011;4148;47.974;7.824;2023-02-28T09:33:14;8.43;;;6.80;;
8213;SDS011;4148;47.974;7.824;2023-02-28T09:35:43;10.47;;;7.43;;
8213;SDS011;4148;47.974;7.824;2023-02-28T09:38:10;8.97;;;6.10;;
8213;SDS011;4148;47.974;7.824;2023-02-28T09:40:41;10.57;;;7.80;;
8213;SDS011;4148;47.974;7.824;2023-02-28T09:43:16;11.63;;;6.90;;
8213;SDS011;4148;47.974;7.824;2023-02-28T09:45:47;8.83;;;6.17;;
8213;SDS011;4148;47.974;7.824;2023-02-28T09:48:20;8.40;;;6.27;;
8213;SDS011;4148;47.974;7.824;2023-02-28T09:50:52;9.17;;;6.70;;
8213;SDS011;4148;47.974;7.824;2023-02-28T09:53:28;10.60;;;7.00;;
8213;SDS011;4148;47.974;7.824;2023-02-28T09:56:01;9.33;;;6.90;;
8213;SDS011;4148;47.974;7.824;2023-02-28T09:58:34;9.00;;;6.87;;
8213;SDS011;4148;47.974;7.824;2023-02-28T10:01:10;10.93;;;7.17;;
8213;SDS011;4148;47.974;7.824;2023-02-28T10:03:48;10.30;;;6.90;;
8213;SDS011;4148;47.974;7.824;2023-02-28T10:06:26;8.97;;;6.80;;
8213;SDS011;4148;47.974;7.824;2023-02-28T10:08:58;10.57;;;7.00;;
8213;SDS011;4148;47.974;7.824;2023-02-28T10:11:28;10.23;;;6.97;;
8213;SDS011;4148;47.974;7.824;2023-02-28T10:14:00;10.23;;;7.00;;
8213;SDS011;4148;47.974;7.824;2023-02-28T10:16:31;9.63;;;7.20;;
8213;SDS011;4148;47.974;7.824;2023-02-28T10:19:04;8.57;;;6.13;;
8213;SDS011;4148;47.974;7.824;2023-02-28T10:21:35;9.03;;;6.97;;
8213;SDS011;4148;47.974;7.824;2023-02-28T10:24:11;10.90;;;7.50;;
8213;SDS011;4148;47.974;7.824;2023-02-28T10:26:45;9.20;;;6.13;;
8213;SDS011;4148;47.974;7.824;2023-02-28T10:29:15;10.30;;;6.70;;
8213;SDS011;4148;47.974;7.824;2023-02-28T10:31:43;9.80;;;6.80;;
8213;SDS011;4148;47.974;7.824;2023-02-28T10:34:12;9.60;;;6.83;;
8213;SDS011;4148;47.974;7.824;2023-02-28T10:36:41;9.00;;;7.30;;
8213;SDS011;4148;47.974;7.824;2023-02-28T10:42:18;8.40;;;6.60;;
8213;SDS011;4148;47.974;7.824;2023-02-28T10:45:04;9.33;;;7.33;;
8213;SDS011;4148;47.974;7.824;2023-02-28T10:47:34;9.33;;;6.90;;
8213;SDS011;4148;47.974;7.824;2023-02-28T10:53:04;8.50;;;6.33;;
8213;SDS011;4148;47.974;7.824;2023-02-28T10:55:38;9.63;;;7.40;;
8213;SDS011;4148;47.974;7.824;2023-02-28T10:58:14;11.70;;;7.00;;
8213;SDS011;4148;47.974;7.824;2023-02-28T11:00:49;10.40;;;7.70;;
8213;SDS011;4148;47.974;7.824;2023-02-28T11:03:28;8.90;;;6.87;;
8213;SDS011;4148;47.974;7.824;2023-02-28T11:06:03;10.73;;;7.17;;
8213;SDS011;4148;47.974;7.824;2023-02-28T11:08:34;19.30;;;7.37;;
8213;SDS011;4148;47.974;7.824;2023-02-28T11:11:11;10.37;;;6.57;;
8213;SDS011;4148;47.974;7.824;2023-02-28T11:13:38;10.40;;;7.60;;
8213;SDS011;4148;47.974;7.824;2023-02-28T11:16:09;9.30;;;7.00;;
8213;SDS011;4148;47.974;7.824;2023-02-28T11:18:40;8.17;;;6.00;;
8213;SDS011;4148;47.974;7.824;2023-02-28T11:21:15;9.10;;;7.00;;
8213;SDS011;4148;47.974;7.824;2023-02-28T11:23:44;13.47;;;7.73;;
8213;SDS011;4148;47.974;7.824;2023-02-28T11:26:12;10.70;;;7.50;;
8213;SDS011;4148;47.974;7.824;2023-02-28T11:28:41;12.03;;;8.03;;
8213;SDS011;4148;47.974;7.824;2023-02-28T11:31:17;10.70;;;7.70;;
8213;SDS011;4148;47.974;7.824;2023-02-28T11:33:47;26.33;;;10.27;;
8213;SDS011;4148;47.974;7.824;2023-02-28T11:36:19;12.07;;;8.40;;
8213;SDS011;4148;47.974;7.824;2023-02-28T11:38:50;9.40;;;6.93;;
8213;SDS011;4148;47.974;7.824;2023-02-28T11:41:24;10.60;;;7.50;;
8213;SDS011;4148;47.974;7.824;2023-02-28T11:46:49;11.43;;;7.43;;
8213;SDS011;4148;47.974;7.824;2023-02-28T11:49:23;13.73;;;7.00;;
8213;SDS011;4148;47.974;7.824;2023-02-28T11:52:01;12.53;;;7.83;;
8213;SDS011;4148;47.974;7.824;2023-02-28T11:54:39;10.43;;;7.57;;
8213;SDS011;4148;47.974;7.824;2023-02-28T11:57:24;10.57;;;7.67;;
8213;SDS011;4148;47.974;7.824;2023-02-28T12:00:01;11.63;;;8.33;;
8213;SDS011;4148;47.974;7.824;2023-02-28T12:02:37;11.07;;;7.87;;
8213;SDS011;4148;47.974;7.824;2023-02-28T12:05:20;14.10;;;8.87;;
8213;SDS011;4148;47.974;7.824;2023-02-28T12:08:00;13.53;;;8.83;;
8213;SDS011;4148;47.974;7.824;2023-02-28T12:10:42;10.80;;;7.90;;
8213;SDS011;4148;47.974;7.824;2023-02-28T12:13:21;11.20;;;8.07;;
8213;SDS011;4148;47.974;7.824;2023-02-28T12:15:57;12.63;;;8.90;;
8213;SDS011;4148;47.974;7.824;2023-02-28T12:18:40;14.33;;;8.57;;
8213;SDS011;4148;47.974;7.824;2023-02-28T12:21:20;10.10;;;7.80;;
8213;SDS011;4148;47.974;7.824;2023-02-28T12:24:05;11.50;;;8.27;;
8213;SDS011;4148;47.974;7.824;2023-02-28T12:26:47;11.07;;;8.00;;
8213;SDS011;4148;47.974;7.824;2023-02-28T12:29:17;11.67;;;7.70;;
8213;SDS011;4148;47.974;7.824;2023-02-28T12:31:49;11.33;;;8.03;;
8213;SDS011;4148;47.974;7.824;2023-02-28T12:34:21;10.03;;;8.17;;
8213;SDS011;4148;47.974;7.824;2023-02-28T12:36:53;13.63;;;8.17;;
8213;SDS011;4148;47.974;7.824;2023-02-28T12:39:28;11.40;;;8.90;;
8213;SDS011;4148;47.974;7.824;2023-02-28T12:42:16;12.60;;;7.90;;
8213;SDS011;4148;47.974;7.824;2023-02-28T12:44:48;10.87;;;8.10;;
8213;SDS011;4148;47.974;7.824;2023-02-28T12:47:19;12.00;;;8.33;;
8213;SDS011;4148;47.974;7.824;2023-02-28T12:49:49;11.20;;;8.43;;
8213;SDS011;4148;47.974;7.824;2023-02-28T12:52:23;11.20;;;7.37;;
8213;SDS011;4148;47.974;7.824;2023-02-28T12:54:59;13.70;;;8.50;;
8213;SDS011;4148;47.974;7.824;2023-02-28T12:57:33;11.77;;;8.03;;
8213;SDS011;4148;47.974;7.824;2023-02-28T13:00:04;12.97;;;7.83;;
8213;SDS011;4148;47.974;7.824;2023-02-28T13:03:01;11.87;;;8.07;;
8213;SDS011;4148;47.974;7.824;2023-02-28T13:06:01;10.73;;;7.60;;
8213;SDS011;4148;47.974;7.824;2023-02-28T13:11:29;16.20;;;9.03;;
8213;SDS011;4148;47.974;7.824;2023-02-28T13:14:00;12.00;;;8.90;;
8213;SDS011;4148;47.974;7.824;2023-02-28T13:19:37;14.30;;;8.80;;
8213;SDS011;4148;47.974;7.824;2023-02-28T13:22:15;11.87;;;8.00;;
8213;SDS011;4148;47.974;7.824;2023-02-28T13:24:47;11.60;;;8.53;;
8213;SDS011;4148;47.974;7.824;2023-02-28T13:27:23;13.80;;;8.70;;
8213;SDS011;4148;47.974;7.824;2023-02-28T13:33:27;11.73;;;8.23;;
8213;SDS011;4148;47.974;7.824;2023-02-28T13:36:09;11.90;;;8.13;;
8213;SDS011;4148;47.974;7.824;2023-02-28T13:38:50;11.70;;;8.57;;
8213;SDS011;4148;47.974;7.824;2023-02-28T13:44:12;14.67;;;9.50;;
8213;SDS011;4148;47.974;7.824;2023-02-28T13:49:51;13.10;;;8.90;;
8213;SDS011;4148;47.974;7.824;2023-02-28T13:52:20;16.10;;;9.17;;
8213;SDS011;4148;47.974;7.824;2023-02-28T13:55:12;13.30;;;9.10;;
8213;SDS011;4148;47.974;7.824;2023-02-28T13:58:08;11.67;;;7.73;;
8213;SDS011;4148;47.974;7.824;2023-02-28T14:00:55;11.07;;;8.57;;
8213;SDS011;4148;47.974;7.824;2023-02-28T14:03:36;12.50;;;8.60;;
8213;SDS011;4148;47.974;7.824;2023-02-28T14:06:16;11.57;;;8.23;;
8213;SDS011;4148;47.974;7.824;2023-02-28T14:08:52;13.63;;;9.53;;
8213;SDS011;4148;47.974;7.824;2023-02-28T14:11:24;13.13;;;9.37;;
8213;SDS011;4148;47.974;7.824;2023-02-28T14:13:57;17.07;;;9.37;;
8213;SDS011;4148;47.974;7.824;2023-02-28T14:16:27;11.70;;;7.93;;
8213;SDS011;4148;47.974;7.824;2023-02-28T14:19:09;13.17;;;8.73;;
8213;SDS011;4148;47.974;7.824;2023-02-28T14:21:39;13.87;;;9.10;;
8213;SDS011;4148;47.974;7.824;2023-02-28T14:24:28;13.30;;;9.70;;
8213;SDS011;4148;47.974;7.824;2023-02-28T14:27:28;13.20;;;9.33;;
8213;SDS011;4148;47.974;7.824;2023-02-28T14:33:26;11.27;;;8.47;;
8213;SDS011;4148;47.974;7.824;2023-02-28T14:36:08;16.80;;;10.17;;
8213;SDS011;4148;47.974;7.824;2023-02-28T14:38:43;15.10;;;9.27;;
8213;SDS011;4148;47.974;7.824;2023-02-28T14:41:15;13.47;;;9.47;;
8213;SDS011;4148;47.974;7.824;2023-02-28T14:43:48;11.90;;;8.10;;
8213;SDS011;4148;47.974;7.824;2023-02-28T14:46:17;12.60;;;9.10;;
8213;SDS011;4148;47.974;7.824;2023-02-28T14:48:48;12.77;;;8.97;;
8213;SDS011;4148;47.974;7.824;2023-02-28T14:51:18;13.40;;;9.20;;
8213;SDS011;4148;47.974;7.824;2023-02-28T14:53:48;14.07;;;8.90;;
8213;SDS011;4148;47.974;7.824;2023-02-28T14:56:24;11.43;;;8.70;;
8213;SDS011;4148;47.974;7.824;2023-02-28T14:58:58;13.40;;;9.40;;
8213;SDS011;4148;47.974;7.824;2023-02-28T15:01:27;15.57;;;9.37;;
8213;SDS011;4148;47.974;7.824;2023-02-28T15:03:58;15.43;;;9.60;;
8213;SDS011;4148;47.974;7.824;2023-02-28T15:06:29;15.23;;;9.20;;
8213;SDS011;4148;47.974;7.824;2023-02-28T15:09:07;13.07;;;9.20;;
8213;SDS011;4148;47.974;7.824;2023-02-28T15:11:36;13.30;;;9.47;;
8213;SDS011;4148;47.974;7.824;2023-02-28T15:14:05;13.03;;;9.40;;
8213;SDS011;4148;47.974;7.824;2023-02-28T15:16:34;14.00;;;9.43;;
8213;SDS011;4148;47.974;7.824;2023-02-28T15:19:06;15.13;;;10.50;;
8213;SDS011;4148;47.974;7.824;2023-02-28T15:21:41;11.60;;;9.33;;
8213;SDS011;4148;47.974;7.824;2023-02-28T15:24:14;13.93;;;9.60;;
8213;SDS011;4148;47.974;7.824;2023-02-28T15:26:50;16.63;;;9.73;;
8213;SDS011;4148;47.974;7.824;2023-02-28T15:29:22;13.73;;;9.50;;
8213;SDS011;4148;47.974;7.824;2023-02-28T15:31:55;14.40;;;10.37;;
8213;SDS011;4148;47.974;7.824;2023-02-28T15:34:29;12.97;;;8.77;;
8213;SDS011;4148;47.974;7.824;2023-02-28T15:40:09;15.93;;;10.50;;
8213;SDS011;4148;47.974;7.824;2023-02-28T15:42:40;15.37;;;10.07;;
8213;SDS011;4148;47.974;7.824;2023-02-28T15:45:28;14.90;;;10.37;;
8213;SDS011;4148;47.974;7.824;2023-02-28T15:48:04;13.87;;;9.33;;
8213;SDS011;4148;47.974;7.824;2023-02-28T15:50:41;14.83;;;10.30;;
8213;SDS011;4148;47.974;7.824;2023-02-28T15:53:13;15.23;;;11.17;;
8213;SDS011;4148;47.974;7.824;2023-02-28T15:55:44;13.83;;;9.90;;
8213;SDS011;4148;47.974;7.824;2023-02-28T15:58:18;15.87;;;9.70;;
8213;SDS011;4148;47.974;7.824;2023-02-28T16:00:59;17.33;;;10.43;;
8213;SDS011;4148;47.974;7.824;2023-02-28T16:03:38;13.83;;;9.10;;
8213;SDS011;4148;47.974;7.824;2023-02-28T16:06:10;15.73;;;10.90;;
8213;SDS011;4148;47.974;7.824;2023-02-28T16:08:45;15.50;;;9.80;;
8213;SDS011;4148;47.974;7.824;2023-02-28T16:11:17;14.60;;;10.37;;
8213;SDS011;4148;47.974;7.824;2023-02-28T16:13:47;12.10;;;9.20;;
8213;SDS011;4148;47.974;7.824;2023-02-28T16:16:16;15.20;;;11.50;;